createdAt,value
2023-02-22T00:00:46.229Z,99.90
2023-02-22T00:03:18.986Z,99.90
2023-02-22T00:05:47.214Z,99.90
2023-02-22T00:08:16.021Z,99.90
2023-02-22T00:10:42.960Z,99.90
2023-02-22T00:13:13.231Z,99.90
2023-02-22T00:15:44.354Z,99.90
2023-02-22T00:18:14.694Z,99.90
2023-02-22T00:20:41.785Z,99.90
2023-02-22T00:23:19.024Z,99.90
2023-02-22T00:25:46.999Z,99.90
2023-02-22T00:28:15.229Z,99.90
2023-02-22T00:30:44.908Z,99.90
2023-02-22T00:33:13.380Z,99.90
2023-02-22T00:35:40.223Z,99.90
2023-02-22T00:38:07.589Z,99.90
2023-02-22T00:40:35.452Z,99.90
2023-02-22T00:43:04.611Z,99.90
2023-02-22T00:45:32.820Z,99.90
2023-02-22T00:48:00.487Z,99.90
2023-02-22T00:50:29.585Z,99.90
2023-02-22T00:52:57.815Z,99.90
2023-02-22T00:55:28.292Z,99.90
2023-02-22T00:57:55.667Z,99.90
2023-02-22T01:00:25.685Z,99.90
2023-02-22T01:02:52.435Z,99.90
2023-02-22T01:05:24.151Z,99.90
2023-02-22T01:07:51.448Z,99.90
2023-02-22T01:10:21.005Z,99.90
2023-02-22T01:12:48.449Z,99.90
2023-02-22T01:15:16.868Z,99.90
2023-02-22T01:17:44.056Z,99.90
2023-02-22T01:20:14.777Z,99.90
2023-02-22T01:22:49.873Z,99.90
2023-02-22T01:25:19.881Z,99.90
2023-02-22T01:27:46.975Z,99.90
2023-02-22T01:30:15.084Z,99.90
2023-02-22T01:32:42.713Z,99.90
2023-02-22T01:35:13.734Z,99.90
2023-02-22T01:37:42.084Z,99.90
2023-02-22T01:40:11.190Z,99.90
2023-02-22T01:42:37.918Z,99.90
2023-02-22T01:45:35.267Z,99.90
2023-02-22T01:48:08.675Z,99.90
2023-02-22T01:50:42.198Z,99.90
2023-02-22T01:53:13.909Z,99.90
2023-02-22T01:55:41.118Z,99.90
2023-02-22T01:58:09.006Z,99.90
2023-02-22T02:00:36.357Z,99.90
2023-02-22T02:03:14.975Z,99.90
2023-02-22T02:05:42.777Z,99.90
2023-02-22T02:08:36.154Z,99.90
2023-02-22T02:11:08.654Z,99.90
2023-02-22T02:13:36.853Z,99.90
2023-02-22T02:16:04.065Z,99.90
2023-02-22T02:18:32.638Z,99.90
2023-02-22T02:21:38.439Z,99.90
2023-02-22T02:24:16.679Z,99.90
2023-02-22T02:26:49.262Z,99.90
2023-02-22T02:29:55.377Z,99.90
2023-02-22T02:32:28.067Z,99.90
2023-02-22T02:35:05.266Z,99.90
2023-02-22T02:37:44.021Z,99.90
2023-02-22T02:40:19.752Z,99.90
2023-02-22T02:43:14.060Z,99.90
2023-02-22T02:46:10.069Z,99.90
2023-02-22T02:48:41.605Z,99.90
2023-02-22T02:51:10.472Z,99.90
2023-02-22T02:53:40.631Z,99.90
2023-02-22T02:56:07.633Z,99.90
2023-02-22T02:58:42.652Z,99.90
2023-02-22T03:01:11.514Z,99.90
2023-02-22T03:04:10.449Z,99.90
2023-02-22T03:07:04.626Z,99.90
2023-02-22T03:09:49.153Z,99.90
2023-02-22T03:12:38.571Z,99.90
2023-02-22T03:15:29.640Z,99.90
2023-02-22T03:18:08.106Z,99.90
2023-02-22T03:20:50.260Z,99.90
2023-02-22T03:23:27.046Z,99.90
2023-02-22T03:26:12.007Z,99.90
2023-02-22T03:28:42.072Z,99.90
2023-02-22T03:31:18.155Z,99.90
2023-02-22T03:33:59.644Z,99.90
2023-02-22T03:36:32.544Z,99.90
2023-02-22T03:39:04.230Z,99.90
2023-02-22T03:41:31.924Z,99.90
2023-02-22T03:44:06.240Z,99.90
2023-02-22T03:46:35.264Z,99.90
2023-02-22T03:49:14.515Z,99.90
2023-02-22T03:51:41.409Z,99.90
2023-02-22T03:54:09.389Z,99.90
2023-02-22T03:56:50.044Z,99.90
2023-02-22T03:59:17.242Z,99.90
2023-02-22T04:01:43.960Z,99.90
2023-02-22T04:04:10.716Z,99.90
2023-02-22T04:06:37.700Z,99.90
2023-02-22T04:09:04.600Z,99.90
2023-02-22T04:11:31.340Z,99.90
2023-02-22T04:13:58.417Z,99.90
2023-02-22T04:16:25.149Z,99.90
2023-02-22T04:18:51.924Z,99.90
2023-02-22T04:21:19.028Z,99.90
2023-02-22T04:23:45.846Z,99.90
2023-02-22T04:26:13.026Z,99.90
2023-02-22T04:28:39.801Z,99.90
2023-02-22T04:31:06.674Z,99.90
2023-02-22T04:33:33.610Z,99.90
2023-02-22T04:36:00.316Z,99.90
2023-02-22T04:38:27.169Z,99.90
2023-02-22T04:40:55.935Z,99.90
2023-02-22T04:43:22.787Z,99.90
2023-02-22T04:45:49.568Z,99.90
2023-02-22T04:48:16.626Z,99.90
2023-02-22T04:50:43.345Z,99.90
2023-02-22T04:53:11.075Z,99.90
2023-02-22T04:55:37.758Z,99.90
2023-02-22T04:58:04.543Z,99.90
2023-02-22T05:00:31.246Z,99.90
2023-02-22T05:02:58.036Z,99.90
2023-02-22T05:05:24.966Z,99.90
2023-02-22T05:07:51.728Z,99.90
2023-02-22T05:10:19.014Z,99.90
2023-02-22T05:12:45.920Z,99.90
2023-02-22T05:15:17.218Z,99.90
2023-02-22T05:17:43.938Z,99.90
2023-02-22T05:20:23.321Z,99.90
2023-02-22T05:22:51.824Z,99.90
2023-02-22T05:25:20.348Z,99.90
2023-02-22T05:27:52.721Z,99.90
2023-02-22T05:30:24.341Z,99.90
2023-02-22T05:32:52.102Z,99.90
2023-02-22T05:35:24.281Z,99.90
2023-02-22T05:37:51.293Z,99.90
2023-02-22T05:40:23.851Z,99.90
2023-02-22T05:42:51.181Z,99.90
2023-02-22T05:45:20.138Z,99.90
2023-02-22T05:47:47.491Z,99.90
2023-02-22T05:50:15.158Z,99.90
2023-02-22T05:52:41.877Z,99.90
2023-02-22T05:55:10.263Z,99.90
2023-02-22T05:57:39.180Z,99.90
2023-02-22T06:00:08.237Z,99.90
2023-02-22T06:02:34.978Z,99.90
2023-02-22T06:05:01.663Z,99.90
2023-02-22T06:07:28.374Z,99.90
2023-02-22T06:09:55.145Z,99.90
2023-02-22T06:12:21.868Z,99.90
2023-02-22T06:14:48.549Z,99.90
2023-02-22T06:17:16.116Z,99.90
2023-02-22T06:19:42.812Z,99.90
2023-02-22T06:22:19.859Z,99.90
2023-02-22T06:24:46.610Z,99.90
2023-02-22T06:27:13.384Z,99.90
2023-02-22T06:29:44.405Z,99.90
2023-02-22T06:32:11.278Z,99.90
2023-02-22T06:34:38.120Z,99.90
2023-02-22T06:37:04.826Z,99.90
2023-02-22T06:39:31.542Z,99.90
2023-02-22T06:41:59.904Z,99.90
2023-02-22T06:44:26.657Z,99.90
2023-02-22T06:46:53.430Z,99.90
2023-02-22T06:49:20.897Z,99.90
2023-02-22T06:51:48.105Z,99.90
2023-02-22T06:54:15.031Z,99.90
2023-02-22T06:56:41.830Z,99.90
2023-02-22T06:59:08.624Z,99.90
2023-02-22T07:01:35.994Z,99.90
2023-02-22T07:04:03.463Z,99.90
2023-02-22T07:06:30.226Z,99.90
2023-02-22T07:08:57.033Z,90.20
2023-02-22T07:11:23.826Z,82.30
2023-02-22T07:13:50.650Z,91.80
2023-02-22T07:16:17.439Z,98.80
2023-02-22T07:18:44.235Z,99.40
2023-02-22T07:21:10.956Z,99.90
2023-02-22T07:23:38.303Z,99.90
2023-02-22T07:26:06.426Z,71.20
2023-02-22T07:28:33.215Z,30.10
2023-02-22T07:31:01.371Z,11.00
2023-02-22T07:33:28.228Z,1.00
2023-02-22T07:35:54.991Z,1.00
2023-02-22T07:38:21.683Z,1.00
2023-02-22T07:40:48.576Z,1.00
2023-02-22T07:43:23.508Z,1.00
2023-02-22T07:45:53.914Z,1.00
2023-02-22T07:48:22.891Z,1.00
2023-02-22T07:50:49.812Z,1.00
2023-02-22T07:53:31.698Z,1.00
2023-02-22T07:56:02.666Z,1.00
2023-02-22T07:58:30.652Z,1.00
2023-02-22T08:00:58.011Z,1.00
2023-02-22T08:03:26.493Z,1.00
2023-02-22T08:05:56.093Z,1.00
2023-02-22T08:08:23.314Z,1.00
2023-02-22T08:10:51.234Z,1.00
2023-02-22T08:13:18.897Z,1.00
2023-02-22T08:15:47.180Z,12.90
2023-02-22T08:18:16.281Z,31.40
2023-02-22T08:20:44.358Z,19.70
2023-02-22T08:23:13.087Z,4.10
2023-02-22T08:25:39.851Z,1.00
2023-02-22T08:28:09.637Z,1.00
2023-02-22T08:30:40.083Z,1.00
2023-02-22T08:33:07.461Z,1.00
2023-02-22T08:35:34.560Z,1.00
2023-02-22T08:38:04.183Z,1.00
2023-02-22T08:40:34.578Z,1.00
2023-02-22T08:43:01.737Z,99.90
2023-02-22T08:45:28.919Z,99.90
2023-02-22T08:47:55.926Z,1.00
2023-02-22T08:50:33.687Z,1.00
2023-02-22T08:53:02.005Z,99.90
2023-02-22T08:55:34.095Z,1.00
2023-02-22T08:58:02.957Z,1.00
2023-02-22T09:00:33.137Z,1.00
2023-02-22T09:03:02.036Z,1.00
2023-02-22T09:05:31.335Z,99.90
2023-02-22T09:07:58.646Z,99.90
2023-02-22T09:10:28.684Z,99.90
2023-02-22T09:12:55.906Z,99.90
2023-02-22T09:15:24.999Z,99.90
2023-02-22T09:17:52.668Z,1.00
2023-02-22T09:20:21.328Z,99.90
2023-02-22T09:22:49.043Z,1.10
2023-02-22T09:25:17.704Z,1.00
2023-02-22T09:27:48.879Z,99.90
2023-02-22T09:30:36.425Z,1.00
2023-02-22T09:33:20.417Z,1.00
2023-02-22T09:35:49.835Z,1.00
2023-02-22T09:38:19.496Z,1.00
2023-02-22T09:40:49.889Z,99.90
2023-02-22T09:43:23.681Z,99.90
2023-02-22T09:46:21.390Z,99.90
2023-02-22T09:49:21.298Z,99.90
2023-02-22T09:51:50.616Z,99.90
2023-02-22T09:54:51.883Z,1.00
2023-02-22T09:57:26.794Z,1.00
2023-02-22T10:00:13.277Z,99.90
2023-02-22T10:02:48.944Z,99.90
2023-02-22T10:05:20.062Z,1.00
2023-02-22T10:08:12.738Z,33.60
2023-02-22T10:10:44.770Z,1.00
2023-02-22T10:13:34.789Z,1.00
2023-02-22T10:16:05.223Z,99.90
2023-02-22T10:19:03.119Z,99.90
2023-02-22T10:22:00.957Z,1.00
2023-02-22T10:24:38.434Z,99.90
2023-02-22T10:27:08.476Z,99.90
2023-02-22T10:29:52.340Z,99.90
2023-02-22T10:32:31.416Z,1.00
2023-02-22T10:35:00.205Z,1.00
2023-02-22T10:37:34.642Z,1.00
2023-02-22T10:40:18.751Z,1.00
2023-02-22T10:42:45.554Z,47.00
2023-02-22T10:45:27.258Z,1.00
2023-02-22T10:47:59.019Z,18.80
2023-02-22T10:50:31.853Z,1.00
2023-02-22T10:52:58.645Z,99.90
2023-02-22T10:55:25.543Z,55.20
2023-02-22T10:58:00.388Z,1.00
2023-02-22T11:00:37.303Z,99.90
2023-02-22T11:03:22.475Z,99.90
2023-02-22T11:05:49.955Z,1.00
2023-02-22T11:08:16.693Z,1.00
2023-02-22T11:10:43.804Z,43.40
2023-02-22T11:13:18.869Z,99.90
2023-02-22T11:15:45.729Z,1.00
2023-02-22T11:18:31.313Z,1.00
2023-02-22T11:21:14.007Z,75.20
2023-02-22T11:23:44.729Z,99.90
2023-02-22T11:26:15.236Z,25.70
2023-02-22T11:28:49.401Z,99.90
2023-02-22T11:31:22.930Z,1.00
2023-02-22T11:34:03.813Z,63.30
2023-02-22T11:36:40.547Z,1.00
2023-02-22T11:39:25.591Z,1.00
2023-02-22T11:41:52.577Z,1.00
2023-02-22T11:44:24.473Z,1.00
2023-02-22T11:46:55.730Z,99.90
2023-02-22T11:49:46.054Z,1.00
2023-02-22T11:52:34.740Z,1.00
2023-02-22T11:55:41.229Z,1.00
2023-02-22T11:58:29.777Z,99.90
2023-02-22T12:01:39.179Z,99.90
2023-02-22T12:04:27.660Z,1.00
2023-02-22T12:07:20.398Z,1.00
2023-02-22T12:10:02.239Z,1.00
2023-02-22T12:13:03.673Z,1.00
2023-02-22T12:15:42.935Z,99.90
2023-02-22T12:18:17.923Z,1.00
2023-02-22T12:20:55.629Z,1.00
2023-02-22T12:23:30.803Z,1.00
2023-02-22T12:25:58.681Z,1.00
2023-02-22T12:28:38.188Z,1.00
2023-02-22T12:31:29.354Z,1.00
2023-02-22T12:34:09.438Z,24.00
2023-02-22T12:36:43.726Z,99.90
2023-02-22T12:39:29.182Z,99.90
2023-02-22T12:41:57.206Z,1.00
2023-02-22T12:44:33.170Z,99.90
2023-02-22T12:47:02.367Z,1.00
2023-02-22T12:49:56.743Z,99.90
2023-02-22T12:52:35.728Z,99.90
2023-02-22T12:55:18.066Z,1.00
2023-02-22T12:57:52.619Z,1.00
2023-02-22T13:00:48.054Z,99.90
2023-02-22T13:03:38.686Z,99.90
2023-02-22T13:06:11.363Z,99.90
2023-02-22T13:08:47.142Z,1.00
2023-02-22T13:11:35.118Z,99.90
2023-02-22T13:14:13.481Z,1.00
2023-02-22T13:17:04.076Z,99.90
2023-02-22T13:19:49.341Z,7.60
2023-02-22T13:22:28.123Z,1.00
2023-02-22T13:25:16.249Z,1.00
2023-02-22T13:28:21.500Z,16.10
2023-02-22T13:31:11.716Z,1.00
2023-02-22T13:33:57.253Z,1.00
2023-02-22T13:36:38.572Z,99.90
2023-02-22T13:39:27.933Z,1.00
2023-02-22T13:42:28.237Z,99.90
2023-02-22T13:45:19.128Z,99.90
2023-02-22T13:48:11.741Z,26.70
2023-02-22T13:51:07.794Z,1.00
2023-02-22T13:53:47.821Z,99.90
2023-02-22T13:56:15.737Z,99.90
2023-02-22T13:59:00.254Z,1.00
2023-02-22T14:01:46.366Z,1.00
2023-02-22T14:04:27.830Z,1.00
2023-02-22T14:07:02.947Z,40.30
2023-02-22T14:09:49.907Z,1.00
2023-02-22T14:12:28.925Z,34.50
2023-02-22T14:15:27.760Z,99.90
2023-02-22T14:18:03.227Z,99.90
2023-02-22T14:20:40.398Z,99.90
2023-02-22T14:23:33.654Z,99.90
2023-02-22T14:26:37.140Z,99.80
2023-02-22T14:29:09.594Z,99.90
2023-02-22T14:31:45.099Z,99.90
2023-02-22T14:34:30.832Z,99.90
2023-02-22T14:37:07.700Z,99.90
2023-02-22T14:39:39.960Z,99.90
2023-02-22T14:42:27.886Z,99.90
2023-02-22T14:45:09.905Z,99.90
2023-02-22T14:47:40.993Z,36.30
2023-02-22T14:50:16.578Z,99.90
2023-02-22T14:52:46.538Z,98.20
2023-02-22T14:55:29.849Z,14.00
2023-02-22T14:58:10.603Z,34.20
2023-02-22T15:00:37.361Z,39.70
2023-02-22T15:03:04.910Z,68.90
2023-02-22T15:05:40.371Z,34.20
2023-02-22T15:08:09.506Z,1.00
2023-02-22T15:10:45.927Z,1.00
2023-02-22T15:13:23.887Z,1.00
2023-02-22T15:16:01.787Z,40.60
2023-02-22T15:18:41.356Z,99.90
2023-02-22T15:21:13.491Z,99.90
2023-02-22T15:24:02.046Z,99.90
2023-02-22T15:26:37.364Z,99.90
2023-02-22T15:29:11.134Z,99.90
2023-02-22T15:31:40.440Z,99.90
2023-02-22T15:34:27.160Z,1.00
2023-02-22T15:36:56.425Z,1.00
2023-02-22T15:39:29.675Z,1.00
2023-02-22T15:42:07.906Z,1.00
2023-02-22T15:44:40.441Z,1.00
2023-02-22T15:47:19.077Z,1.00
2023-02-22T15:49:46.250Z,1.00
2023-02-22T15:52:23.325Z,1.00
2023-02-22T15:54:51.824Z,1.00
2023-02-22T15:57:25.292Z,1.00
2023-02-22T15:59:55.890Z,1.00
2023-02-22T16:02:37.139Z,1.00
2023-02-22T16:05:09.046Z,1.00
2023-02-22T16:07:46.898Z,1.00
2023-02-22T16:10:28.757Z,1.00
2023-02-22T16:13:30.497Z,1.00
2023-02-22T16:16:03.750Z,1.00
2023-02-22T16:18:33.716Z,1.00
2023-02-22T16:21:05.674Z,1.00
2023-02-22T16:23:33.559Z,1.00
2023-02-22T16:26:26.652Z,1.00
2023-02-22T16:29:00.100Z,1.00
2023-02-22T16:31:38.605Z,1.00
2023-02-22T16:34:08.117Z,1.00
2023-02-22T16:36:46.953Z,1.00
2023-02-22T16:39:36.064Z,1.00
2023-02-22T16:42:05.039Z,1.00
2023-02-22T16:44:31.819Z,1.00
2023-02-22T16:47:00.604Z,1.00
2023-02-22T16:49:30.075Z,1.00
2023-02-22T16:52:01.610Z,1.00
2023-02-22T16:54:36.501Z,1.00
2023-02-22T16:57:04.640Z,1.00
2023-02-22T16:59:36.293Z,1.00
2023-02-22T17:02:07.471Z,1.00
2023-02-22T17:04:34.802Z,1.00
2023-02-22T17:07:05.024Z,1.00
2023-02-22T17:09:32.856Z,1.00
2023-02-22T17:12:00.247Z,1.00
2023-02-22T17:14:36.438Z,1.00
2023-02-22T17:17:03.472Z,1.90
2023-02-22T17:19:30.306Z,9.20
2023-02-22T17:21:57.128Z,12.00
2023-02-22T17:24:29.160Z,15.10
2023-02-22T17:26:57.543Z,18.10
2023-02-22T17:29:24.386Z,20.80
2023-02-22T17:31:52.877Z,25.90
2023-02-22T17:34:20.335Z,29.10
2023-02-22T17:36:47.122Z,29.50
2023-02-22T17:39:14.023Z,35.30
2023-02-22T17:41:41.032Z,39.30
2023-02-22T17:44:08.167Z,39.70
2023-02-22T17:46:36.484Z,42.50
2023-02-22T17:49:03.428Z,45.60
2023-02-22T17:51:30.452Z,49.30
2023-02-22T17:53:57.466Z,50.60
2023-02-22T17:56:24.439Z,54.50
2023-02-22T17:58:53.771Z,57.70
2023-02-22T18:01:27.997Z,58.10
2023-02-22T18:03:57.883Z,60.30
2023-02-22T18:06:28.455Z,62.70
2023-02-22T18:08:57.258Z,66.20
2023-02-22T18:11:26.455Z,64.40
2023-02-22T18:13:58.196Z,67.00
2023-02-22T18:16:26.131Z,65.70
2023-02-22T18:18:54.340Z,69.10
2023-02-22T18:21:21.723Z,67.30
2023-02-22T18:23:48.526Z,69.30
2023-02-22T18:26:17.483Z,72.60
2023-02-22T18:28:44.678Z,76.40
2023-02-22T18:31:17.251Z,79.00
2023-02-22T18:33:45.818Z,83.10
2023-02-22T18:36:14.238Z,86.80
2023-02-22T18:38:43.336Z,90.30
2023-02-22T18:41:16.352Z,92.30
2023-02-22T18:43:46.604Z,94.00
2023-02-22T18:46:18.335Z,95.70
2023-02-22T18:48:47.161Z,97.60
2023-02-22T18:51:17.530Z,99.90
2023-02-22T18:53:47.064Z,99.90
2023-02-22T18:56:21.778Z,99.90
2023-02-22T18:58:52.481Z,99.90
2023-02-22T19:01:19.408Z,99.90
2023-02-22T19:03:49.632Z,99.90
2023-02-22T19:06:18.297Z,99.90
2023-02-22T19:08:46.120Z,99.90
2023-02-22T19:11:19.286Z,99.90
2023-02-22T19:13:51.231Z,99.90
2023-02-22T19:16:20.505Z,99.90
2023-02-22T19:18:49.721Z,99.90
2023-02-22T19:21:16.823Z,99.90
2023-02-22T19:23:47.912Z,99.90
2023-02-22T19:26:20.233Z,99.90
2023-02-22T19:28:47.940Z,99.90
2023-02-22T19:31:18.317Z,99.90
2023-02-22T19:33:46.418Z,99.90
2023-02-22T19:36:14.604Z,99.90
2023-02-22T19:38:41.749Z,99.90
2023-02-22T19:41:12.317Z,99.90
2023-02-22T19:43:39.234Z,99.90
2023-02-22T19:46:07.328Z,99.90
2023-02-22T19:48:34.771Z,99.90
2023-02-22T19:51:07.212Z,99.90
2023-02-22T19:53:35.187Z,99.90
2023-02-22T19:56:09.654Z,99.90
2023-02-22T19:58:41.123Z,99.90
2023-02-22T20:01:22.818Z,99.90
2023-02-22T20:03:54.722Z,99.90
2023-02-22T20:06:26.357Z,99.90
2023-02-22T20:08:54.590Z,99.90
2023-02-22T20:11:22.838Z,99.90
2023-02-22T20:13:49.678Z,99.90
2023-02-22T20:16:16.674Z,99.90
2023-02-22T20:18:48.128Z,99.90
2023-02-22T20:21:27.655Z,99.90
2023-02-22T20:23:57.241Z,99.90
2023-02-22T20:26:25.653Z,99.90
2023-02-22T20:28:52.967Z,99.90
2023-02-22T20:31:21.286Z,99.90
2023-02-22T20:33:52.456Z,99.90
2023-02-22T20:36:22.180Z,99.90
2023-02-22T20:38:55.558Z,99.90
2023-02-22T20:41:30.983Z,99.90
2023-02-22T20:43:59.554Z,99.90
2023-02-22T20:46:28.238Z,99.90
2023-02-22T20:48:56.096Z,99.90
2023-02-22T20:51:23.017Z,99.90
2023-02-22T20:53:50.229Z,99.90
2023-02-22T20:56:19.510Z,99.90
2023-02-22T20:58:46.874Z,99.90
2023-02-22T21:01:19.575Z,99.90
2023-02-22T21:03:46.979Z,99.90
2023-02-22T21:06:17.657Z,99.90
2023-02-22T21:08:49.208Z,99.90
2023-02-22T21:11:18.281Z,99.90
2023-02-22T21:13:45.248Z,99.90
2023-02-22T21:16:29.990Z,99.90
2023-02-22T21:18:59.572Z,99.90
2023-02-22T21:21:27.586Z,99.90
2023-02-22T21:23:56.509Z,99.90
2023-02-22T21:26:27.460Z,99.90
2023-02-22T21:28:55.884Z,99.90
2023-02-22T21:31:24.743Z,99.90
2023-02-22T21:33:54.438Z,99.90
2023-02-22T21:36:25.384Z,99.90
2023-02-22T21:38:55.558Z,99.90
2023-02-22T21:41:27.360Z,99.90
2023-02-22T21:43:55.540Z,99.90
2023-02-22T21:46:22.975Z,99.90
2023-02-22T21:48:49.942Z,99.90
2023-02-22T21:51:23.303Z,99.90
2023-02-22T21:53:52.597Z,99.90
2023-02-22T21:56:24.262Z,99.90
2023-02-22T21:58:59.111Z,99.90
2023-02-22T22:01:28.482Z,99.90
2023-02-22T22:03:56.745Z,99.90
2023-02-22T22:06:23.631Z,99.90
2023-02-22T22:08:50.509Z,99.90
2023-02-22T22:11:18.031Z,99.90
2023-02-22T22:13:45.108Z,99.90
2023-02-22T22:16:18.304Z,99.90
2023-02-22T22:18:46.807Z,99.90
2023-02-22T22:21:20.561Z,99.90
2023-02-22T22:23:48.237Z,99.90
2023-02-22T22:26:17.764Z,99.90
2023-02-22T22:28:48.499Z,99.90
2023-02-22T22:31:17.456Z,99.90
2023-02-22T22:33:45.577Z,99.90
2023-02-22T22:36:14.444Z,99.90
2023-02-22T22:38:41.509Z,99.90
2023-02-22T22:41:13.198Z,99.90
2023-02-22T22:43:41.430Z,99.90
2023-02-22T22:46:08.826Z,99.90
2023-02-22T22:48:39.041Z,99.90
2023-02-22T22:51:11.815Z,99.90
2023-02-22T22:53:41.184Z,99.90
2023-02-22T22:56:17.460Z,99.90
2023-02-22T22:58:51.954Z,99.90
2023-02-22T23:01:26.848Z,99.90
2023-02-22T23:04:01.694Z,99.90
2023-02-22T23:06:32.889Z,99.90
2023-02-22T23:09:10.360Z,99.90
2023-02-22T23:11:45.434Z,99.90
2023-02-22T23:14:21.825Z,99.90
2023-02-22T23:16:50.603Z,99.90
2023-02-22T23:19:19.291Z,99.90
2023-02-22T23:21:50.210Z,99.90
2023-02-22T23:24:20.724Z,99.90
2023-02-22T23:26:50.952Z,99.90
2023-02-22T23:29:19.962Z,99.90
2023-02-22T23:31:48.604Z,99.90
2023-02-22T23:34:21.196Z,99.90
2023-02-22T23:36:48.647Z,99.90
2023-02-22T23:39:17.614Z,99.90
2023-02-22T23:41:44.373Z,99.90
2023-02-22T23:44:16.776Z,99.90
2023-02-22T23:46:48.852Z,99.90
2023-02-22T23:49:20.649Z,99.90
2023-02-22T23:51:48.554Z,99.90
2023-02-22T23:54:19.246Z,99.90
2023-02-22T23:56:53.618Z,99.90
2023-02-22T23:59:20.353Z,99.90
